Port O'Connor, Texas
Current Conditions -  °F | °C
As of 12:53 PM on Thursday 30 Oct 2014 (Local Time) from KPSX Reporting Station
Overcast Overcast  
Wind Chill: 77°   Ceiling: 2700
Heat Index: 79°   Visibility: 10mi
Dew Point: 66°   Wind: 7mph
Humidity: 69%   Direction: 60°ENE
Pressure: 30.1"   Gusts: NA
Location:  28.45°N, 96.41°W
Report Text: KPSX 301753Z AUTO 06006KT 10SM OVC027 25/19 A3010 RMK AO2 SLP194 T02500189 10250 20183 58004
Loading
Personal Weather Stations






























Interactive Weather Map
Tropical Storm Tracking
New forecast layout! Learn more

10-Day Weather Forecast

Advertisements
Track Severe Weather on mobile